createdAt,value
2022-11-22T00:01:36.485Z,26.02
2022-11-22T00:06:38.431Z,25.60
2022-11-22T00:11:40.483Z,25.36
2022-11-22T00:16:42.551Z,25.43
2022-11-22T00:21:44.443Z,25.40
2022-11-22T00:26:46.311Z,26.49
2022-11-22T00:31:48.259Z,25.23
2022-11-22T00:36:50.189Z,26.81
2022-11-22T00:41:52.336Z,25.75
2022-11-22T00:46:54.290Z,25.69
2022-11-22T00:51:56.351Z,27.81
2022-11-22T00:56:58.304Z,26.96
2022-11-22T01:02:00.149Z,28.26
2022-11-22T01:07:02.801Z,27.42
2022-11-22T01:12:06.464Z,28.26
2022-11-22T01:17:08.421Z,28.45
2022-11-22T01:22:10.501Z,28.39
2022-11-22T01:27:12.415Z,28.02
2022-11-22T01:32:14.277Z,29.79
2022-11-22T01:37:16.167Z,29.71
2022-11-22T01:42:18.009Z,31.15
2022-11-22T01:47:25.440Z,30.32
2022-11-22T01:52:31.981Z,30.22
2022-11-22T01:57:36.703Z,30.64
2022-11-22T02:02:38.956Z,29.87
2022-11-22T02:07:44.581Z,30.40
2022-11-22T02:12:46.984Z,30.54
2022-11-22T02:17:48.883Z,31.13
2022-11-22T02:23:03.770Z,30.23
2022-11-22T02:28:05.924Z,30.32
2022-11-22T02:33:08.252Z,29.32
2022-11-22T02:38:22.528Z,28.45
2022-11-22T02:43:29.584Z,28.22
2022-11-22T02:48:31.500Z,27.76
2022-11-22T02:53:33.756Z,27.96
2022-11-22T02:58:35.788Z,27.23
2022-11-22T03:03:37.961Z,26.47
2022-11-22T03:08:39.908Z,26.84
2022-11-22T03:13:42.119Z,27.39
2022-11-22T03:18:44.556Z,27.41
2022-11-22T03:23:46.754Z,27.26
2022-11-22T03:28:48.757Z,27.43
2022-11-22T03:33:51.240Z,27.51
2022-11-22T03:38:53.289Z,26.54
2022-11-22T03:43:55.344Z,26.65
2022-11-22T03:48:57.301Z,26.94
2022-11-22T03:53:59.717Z,27.38
2022-11-22T03:59:03.555Z,27.06
2022-11-22T04:04:05.563Z,27.33
2022-11-22T04:09:13.907Z,28.55
2022-11-22T04:14:40.787Z,28.61
2022-11-22T04:20:02.588Z,28.67
2022-11-22T04:25:14.182Z,29.67
2022-11-22T04:30:20.496Z,28.60
2022-11-22T04:35:23.021Z,28.07
2022-11-22T04:40:24.907Z,28.12
2022-11-22T04:45:26.889Z,28.10
2022-11-22T04:50:48.556Z,27.85
2022-11-22T04:55:50.998Z,27.13
2022-11-22T05:00:53.077Z,28.96
2022-11-22T05:05:55.044Z,29.39
2022-11-22T05:10:57.557Z,29.58
2022-11-22T05:16:00.690Z,29.04
2022-11-22T05:21:13.560Z,30.58
2022-11-22T05:26:15.471Z,30.19
2022-11-22T05:31:23.337Z,29.28
2022-11-22T05:36:25.782Z,29.28
2022-11-22T05:41:27.953Z,28.90
2022-11-22T05:46:30.599Z,28.28
2022-11-22T05:51:34.993Z,28.40
2022-11-22T05:56:37.413Z,26.94
2022-11-22T06:01:39.342Z,27.55
2022-11-22T06:06:41.288Z,26.82
2022-11-22T06:11:43.096Z,27.91
2022-11-22T06:16:45.125Z,27.82
2022-11-22T06:21:47.156Z,27.76
2022-11-22T06:26:49.124Z,26.88
2022-11-22T06:31:50.955Z,26.83
2022-11-22T06:36:52.832Z,26.38
2022-11-22T06:41:54.832Z,26.16
2022-11-22T06:46:56.778Z,28.00
2022-11-22T06:51:58.612Z,27.68
2022-11-22T06:57:00.726Z,26.35
2022-11-22T07:02:06.433Z,28.88
2022-11-22T07:07:08.931Z,30.64
2022-11-22T07:12:10.843Z,31.40
2022-11-22T07:17:12.891Z,32.40
2022-11-22T07:22:14.784Z,32.53
2022-11-22T07:27:16.779Z,32.05
2022-11-22T07:32:18.693Z,31.70
2022-11-22T07:37:20.828Z,31.48
2022-11-22T07:42:26.140Z,33.75
2022-11-22T07:47:28.928Z,34.26
2022-11-22T07:52:30.819Z,35.44
2022-11-22T07:57:33.389Z,38.28
2022-11-22T08:02:37.529Z,36.40
2022-11-22T08:07:39.789Z,37.93
2022-11-22T08:12:42.494Z,36.47
2022-11-22T08:17:44.625Z,34.57
2022-11-22T08:22:46.510Z,33.32
2022-11-22T08:27:48.439Z,32.61
2022-11-22T08:32:51.603Z,30.14
2022-11-22T08:37:57.542Z,29.84
2022-11-22T08:42:59.758Z,31.09
2022-11-22T08:48:01.865Z,32.70
2022-11-22T08:53:04.034Z,30.75
2022-11-22T08:58:06.111Z,30.53
2022-11-22T09:03:07.973Z,30.09
2022-11-22T09:08:25.226Z,28.56
2022-11-22T09:13:28.113Z,29.18
2022-11-22T09:18:30.161Z,26.34
2022-11-22T09:23:32.804Z,26.93
2022-11-22T09:28:35.828Z,26.17
2022-11-22T09:33:39.444Z,25.59
2022-11-22T09:38:41.959Z,25.17
2022-11-22T09:43:57.812Z,24.63
2022-11-22T09:49:02.977Z,22.96
2022-11-22T09:54:07.134Z,23.23
2022-11-22T09:59:35.510Z,21.76
2022-11-22T10:04:40.351Z,20.64
2022-11-22T10:10:06.457Z,21.28
2022-11-22T10:15:42.914Z,22.06
2022-11-22T10:20:48.823Z,21.18
2022-11-22T10:26:12.612Z,20.57
2022-11-22T10:31:23.654Z,20.02
2022-11-22T10:36:44.197Z,20.30
2022-11-22T10:42:04.646Z,20.68
2022-11-22T10:47:18.772Z,19.08
2022-11-22T10:52:27.011Z,19.12
2022-11-22T10:57:38.207Z,16.09
2022-11-22T11:03:15.812Z,15.32
2022-11-22T11:14:37.702Z,14.27
2022-11-22T11:19:44.294Z,15.26
2022-11-22T11:24:46.231Z,14.36
2022-11-22T11:29:54.906Z,14.42
2022-11-22T11:35:07.932Z,15.36
2022-11-22T11:40:31.377Z,14.52
2022-11-22T11:45:33.290Z,15.59
2022-11-22T11:50:35.267Z,15.38
2022-11-22T11:55:37.529Z,14.39
2022-11-22T12:00:40.416Z,15.04
2022-11-22T12:05:42.771Z,16.29
2022-11-22T12:10:56.285Z,17.62
2022-11-22T12:16:14.119Z,17.61
2022-11-22T12:22:09.407Z,19.02
2022-11-22T12:27:12.752Z,18.87
2022-11-22T12:32:18.150Z,18.30
2022-11-22T12:37:31.473Z,18.00
2022-11-22T12:42:44.361Z,18.61
2022-11-22T12:47:47.608Z,18.25
2022-11-22T12:52:59.163Z,18.58
2022-11-22T12:58:21.833Z,18.25
2022-11-22T13:03:32.385Z,20.64
2022-11-22T13:08:37.464Z,21.70
2022-11-22T13:13:43.931Z,21.24
2022-11-22T13:18:51.688Z,22.94
2022-11-22T13:24:09.632Z,23.38
2022-11-22T13:29:41.732Z,22.87
2022-11-22T13:35:18.055Z,23.19
2022-11-22T13:40:31.305Z,24.06
2022-11-22T13:45:49.755Z,25.00
2022-11-22T13:50:51.615Z,24.51
2022-11-22T13:55:53.745Z,22.88
2022-11-22T14:00:57.300Z,23.40
2022-11-22T14:05:59.622Z,24.81
2022-11-22T14:11:27.535Z,23.59
2022-11-22T14:16:43.191Z,27.31
2022-11-22T14:22:03.355Z,27.04
2022-11-22T14:27:20.430Z,26.64
2022-11-22T14:32:26.526Z,28.96
2022-11-22T14:37:31.888Z,28.43
2022-11-22T14:42:57.158Z,30.71
2022-11-22T14:48:13.316Z,28.47
2022-11-22T14:53:21.348Z,28.55
2022-11-22T14:58:28.489Z,29.27
2022-11-22T15:09:16.118Z,29.50
2022-11-22T15:09:53.322Z,30.25
2022-11-22T15:58:56.966Z,31.07
2022-11-22T16:03:59.488Z,32.40
2022-11-22T16:09:06.249Z,34.40
2022-11-22T16:14:36.388Z,33.02
2022-11-22T16:19:38.455Z,33.32
2022-11-22T16:24:40.387Z,33.22
2022-11-22T16:29:57.499Z,33.73
2022-11-22T16:35:27.643Z,36.47
2022-11-22T16:40:22.947Z,37.19
2022-11-22T16:45:25.025Z,38.09
2022-11-22T16:50:27.120Z,36.43
2022-11-22T16:55:29.163Z,36.57
2022-11-22T17:00:32.469Z,34.62
2022-11-22T17:05:34.377Z,35.65
2022-11-22T17:10:45.459Z,33.62
2022-11-22T17:15:48.207Z,34.75
2022-11-22T17:20:50.410Z,34.14
2022-11-22T17:25:52.347Z,35.47
2022-11-22T17:30:58.573Z,36.62
2022-11-22T17:36:00.472Z,37.01
2022-11-22T17:41:02.432Z,38.04
2022-11-22T17:46:04.399Z,36.43
2022-11-22T17:51:11.610Z,37.52
2022-11-22T17:56:13.844Z,37.46
2022-11-22T18:01:21.139Z,35.47
2022-11-22T18:06:23.298Z,36.91
2022-11-22T18:11:25.176Z,37.07
2022-11-22T18:16:28.900Z,35.55
2022-11-22T18:21:32.556Z,35.02
2022-11-22T18:26:40.006Z,35.79
2022-11-22T18:31:51.742Z,34.82
2022-11-22T18:37:00.431Z,33.24
2022-11-22T18:42:16.512Z,31.43
2022-11-22T18:47:18.600Z,32.51
2022-11-22T18:52:22.991Z,33.57
2022-11-22T18:57:25.116Z,33.63
2022-11-22T19:02:27.746Z,32.95
2022-11-22T19:07:29.802Z,33.38
2022-11-22T19:12:32.370Z,34.10
2022-11-22T19:17:34.408Z,34.02
2022-11-22T19:22:36.557Z,32.00
2022-11-22T19:27:38.439Z,32.18
2022-11-22T19:32:40.745Z,30.32
2022-11-22T19:37:43.260Z,29.68
2022-11-22T19:42:45.095Z,28.48
2022-11-22T19:47:53.260Z,28.00
2022-11-22T19:52:55.699Z,30.93
2022-11-22T19:57:57.791Z,30.11
2022-11-22T20:02:59.643Z,33.12
2022-11-22T20:08:01.524Z,30.83
2022-11-22T20:13:07.932Z,31.76
2022-11-22T20:18:12.334Z,31.21
2022-11-22T20:23:14.432Z,31.20
2022-11-22T20:28:16.377Z,31.12
2022-11-22T20:33:18.279Z,32.19
2022-11-22T20:38:21.292Z,30.97
2022-11-22T20:43:23.487Z,31.50
2022-11-22T20:48:25.592Z,32.25
2022-11-22T20:53:29.040Z,33.83
2022-11-22T20:58:31.931Z,32.76
2022-11-22T21:03:34.696Z,34.00
2022-11-22T21:08:36.711Z,36.67
2022-11-22T21:13:38.694Z,38.20
2022-11-22T21:18:40.691Z,38.82
2022-11-22T21:23:43.707Z,43.08
2022-11-22T21:28:45.725Z,41.56
2022-11-22T21:33:48.081Z,41.66
2022-11-22T21:38:50.266Z,41.80
2022-11-22T21:43:54.978Z,39.95
2022-11-22T21:48:56.977Z,40.53
2022-11-22T21:54:00.228Z,41.29
2022-11-22T21:59:02.259Z,42.56
2022-11-22T22:04:04.792Z,41.22
2022-11-22T22:09:06.724Z,40.17
2022-11-22T22:14:08.768Z,42.20
2022-11-22T22:19:11.491Z,40.07
2022-11-22T22:24:13.782Z,39.89
2022-11-22T22:29:15.648Z,40.41
2022-11-22T22:34:18.274Z,40.29
2022-11-22T22:39:20.224Z,37.87
2022-11-22T22:44:22.050Z,38.14
2022-11-22T22:49:23.929Z,39.79
2022-11-22T22:54:25.955Z,41.38
2022-11-22T22:59:27.948Z,43.81
2022-11-22T23:04:30.074Z,38.59
2022-11-22T23:09:32.433Z,39.06
2022-11-22T23:14:34.575Z,38.45
2022-11-22T23:19:37.017Z,37.95
2022-11-22T23:24:39.163Z,38.68
2022-11-22T23:29:41.034Z,38.42
2022-11-22T23:34:43.030Z,39.08
2022-11-22T23:39:44.935Z,40.17
2022-11-22T23:44:47.042Z,39.86
2022-11-22T23:49:48.900Z,39.03
2022-11-22T23:54:50.763Z,38.96
2022-11-22T23:59:52.664Z,39.61
